createdAt,value
2018-03-23T00:01:51.083Z,3.62
2018-03-23T00:04:17.473Z,3.82
2018-03-23T00:06:43.949Z,3.90
2018-03-23T00:09:10.361Z,3.86
2018-03-23T00:11:36.886Z,4.06
2018-03-23T00:14:03.266Z,4.09
2018-03-23T00:16:29.629Z,3.67
2018-03-23T00:18:56.021Z,3.63
2018-03-23T00:21:22.465Z,3.50
2018-03-23T00:23:48.860Z,3.64
2018-03-23T00:26:15.211Z,3.62
2018-03-23T00:28:41.626Z,3.61
2018-03-23T00:31:08.199Z,3.66
2018-03-23T00:33:34.657Z,3.48
2018-03-23T00:36:01.014Z,3.52
2018-03-23T00:38:27.428Z,3.70
2018-03-23T00:40:53.797Z,3.65
2018-03-23T00:43:20.211Z,3.82
2018-03-23T00:45:46.605Z,3.74
2018-03-23T00:48:13.029Z,3.56
2018-03-23T00:50:44.175Z,3.62
2018-03-23T00:53:11.490Z,3.32
2018-03-23T00:55:37.881Z,3.85
2018-03-23T00:58:04.311Z,3.63
2018-03-23T01:00:30.768Z,3.94
2018-03-23T01:02:57.153Z,3.80
2018-03-23T01:05:23.682Z,3.64
2018-03-23T01:07:50.167Z,3.48
2018-03-23T01:10:16.517Z,3.59
2018-03-23T01:12:42.957Z,3.44
2018-03-23T01:15:09.396Z,3.46
2018-03-23T01:17:35.772Z,3.70
2018-03-23T01:20:02.196Z,3.85
2018-03-23T01:22:28.657Z,3.85
2018-03-23T01:24:55.022Z,3.94
2018-03-23T01:27:21.445Z,3.94
2018-03-23T01:29:48.009Z,4.02
2018-03-23T01:32:14.372Z,4.08
2018-03-23T01:34:40.782Z,4.19
2018-03-23T01:37:07.185Z,4.06
2018-03-23T01:39:33.559Z,4.11
2018-03-23T01:42:00.055Z,4.03
2018-03-23T01:44:26.493Z,4.18
2018-03-23T01:46:52.871Z,3.90
2018-03-23T01:49:19.300Z,3.84
2018-03-23T01:51:45.718Z,3.89
2018-03-23T01:54:12.118Z,3.79
2018-03-23T01:56:38.580Z,3.83
2018-03-23T01:59:04.958Z,3.73
2018-03-23T02:01:31.371Z,3.52
2018-03-23T02:03:57.809Z,3.25
2018-03-23T02:06:24.258Z,2.90
2018-03-23T02:08:50.713Z,2.86
2018-03-23T02:11:17.148Z,2.88
2018-03-23T02:13:43.538Z,3.00
2018-03-23T02:16:09.946Z,2.77
2018-03-23T02:18:36.338Z,2.82
2018-03-23T02:21:02.761Z,3.08
2018-03-23T02:23:29.190Z,2.87
2018-03-23T02:25:55.588Z,2.82
2018-03-23T02:28:22.009Z,2.65
2018-03-23T02:30:48.499Z,2.45
2018-03-23T02:33:14.907Z,2.56
2018-03-23T02:35:41.308Z,2.60
2018-03-23T02:38:07.710Z,2.53
2018-03-23T02:40:34.121Z,2.73
2018-03-23T02:43:00.517Z,2.71
2018-03-23T02:45:26.971Z,2.59
2018-03-23T02:47:53.346Z,2.68
2018-03-23T02:50:19.750Z,2.83
2018-03-23T02:52:46.187Z,2.66
2018-03-23T02:55:12.652Z,2.58
2018-03-23T02:57:39.030Z,2.66
2018-03-23T03:00:05.534Z,2.63
2018-03-23T03:02:32.106Z,2.51
2018-03-23T03:04:58.659Z,2.47
2018-03-23T03:07:25.195Z,2.62
2018-03-23T03:09:51.626Z,2.74
2018-03-23T03:12:17.980Z,2.86
2018-03-23T03:14:44.341Z,2.99
2018-03-23T03:17:10.751Z,3.02
2018-03-23T03:19:37.188Z,3.01
2018-03-23T03:22:03.574Z,3.03
2018-03-23T03:24:30.046Z,3.01
2018-03-23T03:26:56.434Z,2.95
2018-03-23T03:29:22.935Z,2.70
2018-03-23T03:31:49.341Z,2.64
2018-03-23T03:34:15.757Z,2.90
2018-03-23T03:36:42.209Z,2.99
2018-03-23T03:39:08.569Z,2.95
2018-03-23T03:41:34.983Z,3.16
2018-03-23T03:44:01.435Z,3.32
2018-03-23T03:46:27.894Z,3.28
2018-03-23T03:48:54.257Z,3.14
2018-03-23T03:51:20.718Z,3.06
2018-03-23T03:53:47.111Z,3.19
2018-03-23T03:56:13.574Z,3.31
2018-03-23T03:58:40.185Z,3.37
2018-03-23T04:01:06.621Z,3.32
2018-03-23T04:03:33.026Z,3.22
2018-03-23T04:05:59.865Z,3.31
2018-03-23T04:08:26.276Z,3.30
2018-03-23T04:10:52.773Z,3.38
2018-03-23T04:13:19.216Z,3.33
2018-03-23T04:15:45.615Z,3.29
2018-03-23T04:18:11.992Z,3.27
2018-03-23T04:20:38.398Z,3.29
2018-03-23T04:23:04.832Z,3.06
2018-03-23T04:25:31.329Z,3.03
2018-03-23T04:27:57.810Z,3.31
2018-03-23T04:30:24.177Z,3.24
2018-03-23T04:32:50.589Z,3.36
2018-03-23T04:35:17.062Z,3.44
2018-03-23T04:37:43.516Z,3.48
2018-03-23T04:40:09.915Z,3.42
2018-03-23T04:42:36.358Z,3.47
2018-03-23T04:45:02.880Z,3.52
2018-03-23T04:47:29.294Z,3.49
2018-03-23T04:49:55.954Z,3.57
2018-03-23T04:52:22.538Z,3.51
2018-03-23T04:54:48.956Z,3.37
2018-03-23T04:57:15.384Z,3.45
2018-03-23T04:59:41.986Z,3.55
2018-03-23T05:02:08.434Z,3.52
2018-03-23T05:04:34.929Z,3.55
2018-03-23T05:07:01.341Z,3.48
2018-03-23T05:09:27.720Z,3.52
2018-03-23T05:11:54.130Z,3.48
2018-03-23T05:14:20.570Z,3.42
2018-03-23T05:16:47.015Z,3.17
2018-03-23T05:19:13.479Z,3.41
2018-03-23T05:21:40.001Z,3.27
2018-03-23T05:24:06.478Z,3.14
2018-03-23T05:26:33.005Z,3.36
2018-03-23T05:28:59.493Z,3.13
2018-03-23T05:31:26.061Z,3.23
2018-03-23T05:33:52.474Z,3.35
2018-03-23T05:36:18.874Z,3.51
2018-03-23T05:38:45.302Z,3.55
2018-03-23T05:41:11.737Z,3.40
2018-03-23T05:43:40.305Z,3.49
2018-03-23T05:46:06.733Z,3.62
2018-03-23T05:48:33.195Z,3.51
2018-03-23T05:50:59.659Z,3.62
2018-03-23T05:53:26.090Z,3.74
2018-03-23T05:55:52.550Z,3.71
2018-03-23T05:58:18.927Z,3.65
2018-03-23T06:00:45.406Z,3.74
2018-03-23T06:03:11.946Z,3.80
2018-03-23T06:05:39.410Z,3.66
2018-03-23T06:08:05.962Z,3.75
2018-03-23T06:10:32.503Z,3.79
2018-03-23T06:12:58.905Z,3.75
2018-03-23T06:15:25.365Z,3.71
2018-03-23T06:17:51.881Z,3.91
2018-03-23T06:20:18.370Z,3.83
2018-03-23T06:22:44.930Z,3.89
2018-03-23T06:25:11.376Z,3.87
2018-03-23T06:27:38.513Z,3.85
2018-03-23T06:30:05.053Z,3.90
2018-03-23T06:32:31.565Z,3.86
2018-03-23T06:34:57.990Z,3.93
2018-03-23T06:37:24.673Z,3.88
2018-03-23T06:39:51.241Z,3.86
2018-03-23T06:42:17.652Z,3.93
2018-03-23T06:44:44.124Z,4.04
2018-03-23T06:47:10.742Z,3.99
2018-03-23T06:49:37.141Z,4.08
2018-03-23T06:52:03.661Z,4.04
2018-03-23T06:54:30.261Z,4.06
2018-03-23T06:56:57.706Z,4.15
2018-03-23T06:59:25.100Z,4.26
2018-03-23T07:01:51.586Z,4.29
2018-03-23T07:04:17.978Z,4.14
2018-03-23T07:06:44.484Z,3.74
2018-03-23T07:09:10.890Z,3.81
2018-03-23T07:11:37.382Z,3.76
2018-03-23T07:14:03.822Z,3.71
2018-03-23T07:16:30.350Z,3.68
2018-03-23T07:18:56.773Z,3.89
2018-03-23T07:21:23.226Z,3.84
2018-03-23T07:23:49.705Z,3.82
2018-03-23T07:26:16.176Z,3.93
2018-03-23T07:28:42.634Z,3.80
2018-03-23T07:31:09.143Z,3.83
2018-03-23T07:33:35.575Z,3.85
2018-03-23T07:36:01.962Z,3.61
2018-03-23T07:38:28.474Z,3.48
2018-03-23T07:40:54.997Z,3.51
2018-03-23T07:43:21.594Z,3.42
2018-03-23T07:45:48.025Z,3.42
2018-03-23T07:48:14.483Z,3.60
2018-03-23T07:50:40.949Z,3.55
2018-03-23T07:53:07.531Z,3.76
2018-03-23T07:55:33.966Z,3.85
2018-03-23T07:58:00.400Z,3.81
2018-03-23T08:00:26.874Z,3.58
2018-03-23T08:02:53.333Z,3.54
2018-03-23T08:05:19.741Z,3.65
2018-03-23T08:07:46.214Z,3.65
2018-03-23T08:10:12.646Z,3.74
2018-03-23T08:12:39.160Z,3.75
2018-03-23T08:15:05.659Z,3.78
2018-03-23T08:17:32.117Z,3.95
2018-03-23T08:19:58.550Z,4.00
2018-03-23T08:22:25.039Z,3.94
2018-03-23T08:24:51.494Z,3.76
2018-03-23T08:27:17.930Z,3.68
2018-03-23T08:29:45.247Z,3.93
2018-03-23T08:32:11.711Z,4.07
2018-03-23T08:34:38.205Z,3.93
2018-03-23T08:37:04.725Z,4.08
2018-03-23T08:39:31.147Z,4.17
2018-03-23T08:41:57.586Z,4.08
2018-03-23T08:44:24.313Z,4.17
2018-03-23T08:46:50.862Z,4.21
2018-03-23T08:49:17.326Z,4.22
2018-03-23T08:51:43.910Z,4.15
2018-03-23T08:54:10.370Z,4.31
2018-03-23T08:56:36.936Z,4.31
2018-03-23T08:59:03.378Z,4.13
2018-03-23T09:01:29.819Z,4.25
2018-03-23T09:03:56.267Z,4.32
2018-03-23T09:06:22.742Z,4.47
2018-03-23T09:08:49.197Z,4.60
2018-03-23T09:11:15.581Z,4.68
2018-03-23T09:13:42.034Z,4.59
2018-03-23T09:16:08.583Z,4.71
2018-03-23T09:18:35.059Z,4.86
2018-03-23T09:21:01.516Z,4.94
2018-03-23T09:23:28.018Z,5.19
2018-03-23T09:25:54.494Z,5.40
2018-03-23T09:28:20.958Z,5.39
2018-03-23T09:30:47.422Z,5.19
2018-03-23T09:33:13.908Z,5.23
2018-03-23T09:35:40.516Z,5.33
2018-03-23T09:38:06.998Z,5.31
2018-03-23T09:40:33.565Z,5.28
2018-03-23T09:43:00.103Z,5.54
2018-03-23T09:45:26.643Z,5.76
2018-03-23T09:47:53.117Z,5.91
2018-03-23T09:50:19.662Z,5.96
2018-03-23T09:52:46.185Z,6.08
2018-03-23T09:55:12.678Z,6.15
2018-03-23T09:57:39.110Z,6.05
2018-03-23T10:00:05.624Z,6.16
2018-03-23T10:02:32.081Z,6.21
2018-03-23T10:04:58.537Z,6.02
2018-03-23T10:07:25.128Z,6.16
2018-03-23T10:09:51.535Z,6.33
2018-03-23T10:12:18.018Z,6.36
2018-03-23T10:14:44.486Z,6.36
2018-03-23T10:17:10.949Z,6.33
2018-03-23T10:19:37.443Z,6.43
2018-03-23T10:22:03.890Z,6.66
2018-03-23T10:24:30.346Z,6.86
2018-03-23T10:26:56.842Z,6.71
2018-03-23T10:29:23.291Z,6.56
2018-03-23T10:31:49.730Z,6.73
2018-03-23T10:34:16.233Z,6.94
2018-03-23T10:36:42.858Z,7.04
2018-03-23T10:39:09.455Z,6.69
2018-03-23T10:41:36.009Z,6.81
2018-03-23T10:44:02.742Z,7.01
2018-03-23T10:46:29.174Z,7.05
2018-03-23T10:48:56.330Z,7.10
2018-03-23T10:51:22.804Z,7.05
2018-03-23T10:53:49.268Z,6.97
2018-03-23T10:56:15.721Z,7.08
2018-03-23T10:58:42.195Z,6.90
2018-03-23T11:14:25.400Z,7.13
2018-03-23T11:16:51.868Z,7.16
2018-03-23T11:19:18.453Z,6.98
2018-03-23T11:21:44.966Z,7.14
2018-03-23T11:24:11.398Z,7.29
2018-03-23T11:26:37.889Z,7.25
2018-03-23T11:29:04.422Z,7.05
2018-03-23T11:31:30.817Z,7.21
2018-03-23T11:33:57.310Z,7.32
2018-03-23T11:36:23.782Z,7.45
2018-03-23T11:38:50.422Z,7.54
2018-03-23T11:41:17.196Z,7.59
2018-03-23T11:43:43.636Z,7.54
2018-03-23T11:46:10.027Z,7.20
2018-03-23T11:48:36.707Z,7.02
2018-03-23T11:51:03.146Z,7.29
2018-03-23T11:53:29.599Z,7.51
2018-03-23T11:55:56.189Z,7.53
2018-03-23T11:58:22.638Z,7.62
2018-03-23T12:00:49.319Z,7.74
2018-03-23T12:03:15.870Z,7.70
2018-03-23T12:05:46.738Z,7.80
2018-03-23T12:08:18.947Z,7.81
2018-03-23T12:10:45.626Z,7.82
2018-03-23T12:13:12.394Z,7.67
2018-03-23T12:15:38.899Z,7.78
2018-03-23T12:18:05.513Z,7.66
2018-03-23T12:20:31.970Z,7.75
2018-03-23T12:22:58.541Z,7.73
2018-03-23T12:25:25.101Z,7.62
2018-03-23T12:27:51.617Z,7.76
2018-03-23T12:30:18.083Z,7.71
2018-03-23T12:32:44.606Z,7.71
2018-03-23T12:35:11.040Z,7.81
2018-03-23T12:37:37.454Z,7.83
2018-03-23T12:40:04.035Z,7.61
2018-03-23T12:42:30.441Z,7.73
2018-03-23T12:44:57.034Z,7.82
2018-03-23T12:47:23.473Z,7.86
2018-03-23T12:49:49.868Z,7.72
2018-03-23T12:52:16.254Z,7.88
2018-03-23T12:54:43.822Z,7.88
2018-03-23T12:57:10.233Z,7.90
2018-03-23T12:59:36.682Z,7.71
2018-03-23T13:02:03.066Z,7.86
2018-03-23T13:04:29.559Z,7.93
2018-03-23T13:06:55.926Z,7.82
2018-03-23T13:09:22.430Z,7.80
2018-03-23T13:11:48.868Z,7.77
2018-03-23T13:14:15.287Z,7.83
2018-03-23T13:16:41.874Z,7.95
2018-03-23T13:19:08.226Z,7.72
2018-03-23T13:21:34.604Z,7.75
2018-03-23T13:24:00.977Z,7.86
2018-03-23T13:26:27.318Z,7.90
2018-03-23T13:28:53.756Z,7.85
2018-03-23T13:31:20.170Z,7.75
2018-03-23T13:33:46.611Z,8.04
2018-03-23T13:36:13.009Z,8.05
2018-03-23T13:38:39.462Z,8.07
2018-03-23T13:41:05.923Z,8.20
2018-03-23T13:43:32.410Z,8.14
2018-03-23T13:45:58.810Z,7.95
2018-03-23T13:48:25.197Z,7.97
2018-03-23T13:50:51.610Z,7.97
2018-03-23T13:53:17.970Z,8.00
2018-03-23T13:55:44.346Z,8.05
2018-03-23T13:58:10.872Z,8.11
2018-03-23T14:00:43.370Z,7.81
2018-03-23T14:03:09.773Z,8.02
2018-03-23T14:05:36.149Z,8.11
2018-03-23T14:08:02.554Z,8.18
2018-03-23T14:10:29.422Z,8.14
2018-03-23T14:12:55.924Z,8.05
2018-03-23T14:15:22.301Z,7.82
2018-03-23T14:17:48.701Z,7.94
2018-03-23T14:20:15.106Z,7.93
2018-03-23T14:22:41.475Z,7.73
2018-03-23T14:25:07.928Z,7.67
2018-03-23T14:27:34.310Z,7.63
2018-03-23T14:30:00.693Z,7.79
2018-03-23T14:32:27.209Z,7.89
2018-03-23T14:34:53.561Z,7.89
2018-03-23T14:37:20.159Z,7.79
2018-03-23T14:39:46.550Z,7.78
2018-03-23T14:42:12.947Z,7.92
2018-03-23T14:44:39.600Z,7.83
2018-03-23T14:47:06.026Z,7.81
2018-03-23T14:49:32.506Z,7.81
2018-03-23T14:51:58.982Z,7.80
2018-03-23T14:54:25.394Z,7.67
2018-03-23T14:56:51.786Z,7.74
2018-03-23T14:59:18.343Z,7.90
2018-03-23T15:01:44.714Z,7.90
2018-03-23T15:04:11.125Z,7.92
2018-03-23T15:06:37.622Z,8.02
2018-03-23T15:09:04.015Z,7.84
2018-03-23T15:11:30.428Z,7.88
2018-03-23T15:14:09.129Z,7.88
2018-03-23T15:16:35.502Z,7.89
2018-03-23T15:19:01.849Z,7.93
2018-03-23T15:21:28.254Z,8.00
2018-03-23T15:23:54.710Z,7.95
2018-03-23T15:26:21.129Z,7.98
2018-03-23T15:28:47.503Z,7.99
2018-03-23T15:31:13.918Z,8.03
2018-03-23T15:33:40.298Z,8.03
2018-03-23T15:36:06.699Z,7.95
2018-03-23T15:38:33.050Z,7.86
2018-03-23T15:40:59.424Z,7.86
2018-03-23T15:43:25.810Z,7.89
2018-03-23T15:45:52.189Z,7.95
2018-03-23T15:48:18.530Z,7.87
2018-03-23T15:50:44.928Z,7.94
2018-03-23T15:53:11.991Z,8.02
2018-03-23T15:55:41.421Z,7.91
2018-03-23T15:58:08.912Z,7.95
2018-03-23T16:00:35.536Z,7.97
2018-03-23T16:03:02.157Z,7.95
2018-03-23T16:05:29.048Z,7.99
2018-03-23T16:07:55.959Z,8.07
2018-03-23T16:10:23.263Z,8.09
2018-03-23T16:12:49.754Z,8.09
2018-03-23T16:15:16.121Z,8.14
2018-03-23T16:17:42.615Z,8.19
2018-03-23T16:20:10.783Z,8.13
2018-03-23T16:22:38.973Z,8.14
2018-03-23T16:25:05.627Z,8.10
2018-03-23T16:27:31.982Z,8.18
2018-03-23T16:29:58.358Z,8.16
2018-03-23T16:32:24.738Z,8.19
2018-03-23T16:34:51.113Z,8.20
2018-03-23T16:37:17.501Z,8.05
2018-03-23T16:39:43.832Z,7.95
2018-03-23T16:42:10.198Z,7.99
2018-03-23T16:44:36.612Z,8.03
2018-03-23T16:47:03.277Z,7.73
2018-03-23T16:49:29.718Z,7.80
2018-03-23T16:51:57.567Z,7.61
2018-03-23T16:54:24.566Z,7.34
2018-03-23T16:56:50.938Z,7.43
2018-03-23T16:59:17.350Z,7.63
2018-03-23T17:01:43.993Z,7.07
2018-03-23T17:04:10.470Z,7.39
2018-03-23T17:06:36.982Z,7.35
2018-03-23T17:09:03.461Z,7.38
2018-03-23T17:11:29.870Z,7.26
2018-03-23T17:13:56.433Z,7.37
2018-03-23T17:16:23.162Z,7.41
2018-03-23T17:18:49.560Z,7.52
2018-03-23T17:21:16.038Z,7.28
2018-03-23T17:23:42.511Z,7.48
2018-03-23T17:26:09.105Z,7.50
2018-03-23T17:28:35.470Z,7.55
2018-03-23T17:31:02.050Z,7.61
2018-03-23T17:33:28.570Z,7.67
2018-03-23T17:35:54.976Z,7.39
2018-03-23T17:38:21.390Z,7.48
2018-03-23T17:40:47.921Z,7.58
2018-03-23T17:43:14.322Z,7.69
2018-03-23T17:45:40.819Z,7.74
2018-03-23T17:48:07.307Z,7.73
2018-03-23T17:50:33.682Z,7.69
2018-03-23T17:53:00.152Z,7.79
2018-03-23T17:55:26.546Z,7.60
2018-03-23T17:57:52.937Z,7.66
2018-03-23T18:00:19.474Z,7.17
2018-03-23T18:02:45.845Z,7.40
2018-03-23T18:05:12.401Z,7.62
2018-03-23T18:07:38.836Z,7.65
2018-03-23T18:10:05.200Z,7.64
2018-03-23T18:12:31.642Z,7.65
2018-03-23T18:14:58.032Z,7.67
2018-03-23T18:17:24.586Z,7.65
2018-03-23T18:19:50.962Z,7.63
2018-03-23T18:22:17.301Z,7.67
2018-03-23T18:24:43.926Z,7.66
2018-03-23T18:27:10.278Z,7.64
2018-03-23T18:29:36.781Z,7.62
2018-03-23T18:32:03.360Z,7.30
2018-03-23T18:34:29.725Z,7.20
2018-03-23T18:36:56.078Z,6.97
2018-03-23T18:39:22.430Z,7.06
2018-03-23T18:41:48.774Z,7.16
2018-03-23T18:44:15.173Z,6.83
2018-03-23T18:46:41.558Z,6.83
2018-03-23T18:49:07.923Z,6.96
2018-03-23T18:51:34.301Z,6.72
2018-03-23T18:54:00.690Z,6.94
2018-03-23T18:56:27.055Z,7.06
2018-03-23T18:58:53.526Z,7.08
2018-03-23T19:01:19.890Z,7.06
2018-03-23T19:03:46.238Z,7.05
2018-03-23T19:06:12.606Z,6.80
2018-03-23T19:08:38.977Z,7.05
2018-03-23T19:11:05.431Z,7.20
2018-03-23T19:13:31.774Z,7.28
2018-03-23T19:15:58.122Z,7.17
2018-03-23T19:18:24.518Z,7.12
2018-03-23T19:20:50.925Z,7.12
2018-03-23T19:23:17.303Z,7.16
2018-03-23T19:25:43.686Z,6.89
2018-03-23T19:28:10.050Z,7.14
2018-03-23T19:30:36.425Z,7.27
2018-03-23T19:33:02.837Z,7.16
2018-03-23T19:35:29.202Z,7.20
2018-03-23T19:37:55.578Z,7.25
2018-03-23T19:40:21.917Z,7.24
2018-03-23T19:42:48.278Z,7.28
2018-03-23T19:45:14.760Z,7.22
2018-03-23T19:47:41.043Z,7.30
2018-03-23T19:50:07.399Z,7.32
2018-03-23T19:52:33.774Z,7.21
2018-03-23T19:55:00.134Z,7.16
2018-03-23T19:57:26.501Z,7.05
2018-03-23T19:59:52.895Z,6.53
2018-03-23T20:02:19.261Z,6.34
2018-03-23T20:04:45.745Z,6.51
2018-03-23T20:07:12.118Z,6.60
2018-03-23T20:09:38.629Z,6.73
2018-03-23T20:12:05.021Z,6.43
2018-03-23T20:14:31.459Z,6.50
2018-03-23T20:16:57.838Z,6.70
2018-03-23T20:19:24.193Z,6.72
2018-03-23T20:21:50.574Z,6.75
2018-03-23T20:24:23.039Z,6.76
2018-03-23T20:26:49.411Z,6.52
2018-03-23T20:29:15.774Z,6.60
2018-03-23T20:31:48.148Z,6.71
2018-03-23T20:34:14.517Z,6.88
2018-03-23T20:36:40.929Z,6.86
2018-03-23T20:39:07.305Z,6.74
2018-03-23T20:41:33.662Z,6.76
2018-03-23T20:44:00.058Z,6.80
2018-03-23T20:46:26.649Z,6.86
2018-03-23T20:48:53.010Z,6.62
2018-03-23T20:51:19.386Z,6.74
2018-03-23T20:53:45.790Z,6.75
2018-03-23T20:56:12.146Z,6.68
2018-03-23T20:58:38.742Z,6.47
2018-03-23T21:01:05.132Z,6.58
2018-03-23T21:03:31.572Z,6.69
2018-03-23T21:05:57.961Z,6.64
2018-03-23T21:08:24.317Z,6.76
2018-03-23T21:10:50.683Z,6.80
2018-03-23T21:13:17.085Z,6.87
2018-03-23T21:15:43.558Z,6.90
2018-03-23T21:18:09.948Z,6.48
2018-03-23T21:20:36.413Z,6.61
2018-03-23T21:23:02.918Z,6.70
2018-03-23T21:25:29.306Z,6.79
2018-03-23T21:27:55.657Z,6.52
2018-03-23T21:30:22.046Z,6.46
2018-03-23T21:32:48.402Z,6.44
2018-03-23T21:35:14.858Z,6.37
2018-03-23T21:37:41.334Z,6.27
2018-03-23T21:40:07.729Z,6.11
2018-03-23T21:42:34.134Z,6.30
2018-03-23T21:45:00.590Z,6.07
2018-03-23T21:47:27.001Z,6.04
2018-03-23T21:49:53.363Z,5.90
2018-03-23T21:52:19.750Z,5.79
2018-03-23T21:54:46.109Z,6.11
2018-03-23T21:57:12.468Z,6.30
2018-03-23T21:59:38.852Z,6.13
2018-03-23T22:02:05.242Z,6.37
2018-03-23T22:04:31.610Z,6.21
2018-03-23T22:06:57.982Z,5.59
2018-03-23T22:09:24.342Z,5.96
2018-03-23T22:11:50.772Z,6.01
2018-03-23T22:14:17.118Z,6.19
2018-03-23T22:16:43.529Z,5.93
2018-03-23T22:19:09.914Z,5.63
2018-03-23T22:21:36.301Z,5.77
2018-03-23T22:24:02.753Z,6.02
2018-03-23T22:26:29.122Z,5.63
2018-03-23T22:28:55.504Z,5.64
2018-03-23T22:31:21.938Z,5.75
2018-03-23T22:33:48.368Z,5.65
2018-03-23T22:36:14.725Z,5.59
2018-03-23T22:38:41.081Z,5.94
2018-03-23T22:41:07.486Z,5.99
2018-03-23T22:43:33.893Z,6.13
2018-03-23T22:46:00.274Z,6.29
2018-03-23T22:48:26.657Z,6.06
2018-03-23T22:50:53.034Z,5.94
2018-03-23T22:53:19.437Z,5.81
2018-03-23T22:55:45.821Z,5.85
2018-03-23T22:58:12.198Z,6.13
2018-03-23T23:00:38.638Z,6.05
2018-03-23T23:03:05.062Z,5.83
2018-03-23T23:05:31.449Z,5.93
2018-03-23T23:07:57.861Z,5.95
2018-03-23T23:10:24.234Z,5.53
2018-03-23T23:12:50.581Z,5.58
2018-03-23T23:15:16.977Z,5.56
2018-03-23T23:17:43.370Z,5.57
2018-03-23T23:20:09.745Z,5.80
2018-03-23T23:22:36.161Z,5.69
2018-03-23T23:25:02.634Z,5.55
2018-03-23T23:27:28.985Z,5.42
2018-03-23T23:29:55.339Z,4.58
2018-03-23T23:32:21.762Z,4.38
2018-03-23T23:34:48.138Z,4.85
2018-03-23T23:37:14.538Z,4.72
2018-03-23T23:39:40.927Z,4.99
2018-03-23T23:42:07.339Z,5.14
2018-03-23T23:44:33.702Z,4.71
2018-03-23T23:47:00.128Z,5.14
2018-03-23T23:49:26.478Z,5.02
2018-03-23T23:51:52.821Z,4.76
2018-03-23T23:54:19.176Z,4.66
2018-03-23T23:56:45.531Z,4.77
2018-03-23T23:59:11.983Z,4.64
